sensor_id;sensor_type;location;lat;lon;timestamp;P1;durP1;ratioP1;P2;durP2;ratioP2
75005;SDS011;63553;51.814;4.600;2022-12-07T00:01:21;2.22;;;1.70;;
75005;SDS011;63553;51.814;4.600;2022-12-07T00:03:49;5.95;;;2.15;;
75005;SDS011;63553;51.814;4.600;2022-12-07T00:06:16;2.35;;;1.90;;
75005;SDS011;63553;51.814;4.600;2022-12-07T00:08:42;2.00;;;1.80;;
75005;SDS011;63553;51.814;4.600;2022-12-07T00:11:09;2.80;;;1.95;;
75005;SDS011;63553;51.814;4.600;2022-12-07T00:13:35;2.67;;;1.80;;
75005;SDS011;63553;51.814;4.600;2022-12-07T00:16:05;2.60;;;1.83;;
75005;SDS011;63553;51.814;4.600;2022-12-07T00:18:33;2.95;;;1.90;;
75005;SDS011;63553;51.814;4.600;2022-12-07T00:21:06;2.75;;;2.10;;
75005;SDS011;63553;51.814;4.600;2022-12-07T00:23:34;3.00;;;2.13;;
75005;SDS011;63553;51.814;4.600;2022-12-07T00:26:04;3.70;;;2.00;;
75005;SDS011;63553;51.814;4.600;2022-12-07T00:28:30;2.33;;;1.75;;
75005;SDS011;63553;51.814;4.600;2022-12-07T00:31:30;2.27;;;2.00;;
75005;SDS011;63553;51.814;4.600;2022-12-07T00:33:49;2.85;;;1.90;;
75005;SDS011;63553;51.814;4.600;2022-12-07T00:36:15;4.18;;;1.98;;
75005;SDS011;63553;51.814;4.600;2022-12-07T00:38:43;3.08;;;1.98;;
75005;SDS011;63553;51.814;4.600;2022-12-07T00:41:15;2.17;;;1.80;;
75005;SDS011;63553;51.814;4.600;2022-12-07T00:43:43;2.72;;;1.77;;
75005;SDS011;63553;51.814;4.600;2022-12-07T00:46:09;2.58;;;1.60;;
75005;SDS011;63553;51.814;4.600;2022-12-07T00:48:35;2.47;;;1.90;;
75005;SDS011;63553;51.814;4.600;2022-12-07T00:51:01;2.22;;;1.73;;
75005;SDS011;63553;51.814;4.600;2022-12-07T00:53:27;1.98;;;1.65;;
75005;SDS011;63553;51.814;4.600;2022-12-07T00:55:52;2.72;;;1.67;;
75005;SDS011;63553;51.814;4.600;2022-12-07T00:58:18;2.00;;;1.70;;
75005;SDS011;63553;51.814;4.600;2022-12-07T01:00:44;5.05;;;1.92;;
75005;SDS011;63553;51.814;4.600;2022-12-07T01:03:10;2.17;;;1.73;;
75005;SDS011;63553;51.814;4.600;2022-12-07T01:05:37;2.53;;;2.00;;
75005;SDS011;63553;51.814;4.600;2022-12-07T01:08:03;2.58;;;1.80;;
75005;SDS011;63553;51.814;4.600;2022-12-07T01:10:29;2.97;;;1.67;;
75005;SDS011;63553;51.814;4.600;2022-12-07T01:12:56;3.78;;;1.70;;
75005;SDS011;63553;51.814;4.600;2022-12-07T01:15:22;2.67;;;1.77;;
75005;SDS011;63553;51.814;4.600;2022-12-07T01:17:47;1.50;;;1.40;;
75005;SDS011;63553;51.814;4.600;2022-12-07T01:20:13;1.98;;;1.75;;
75005;SDS011;63553;51.814;4.600;2022-12-07T01:22:38;1.83;;;1.52;;
75005;SDS011;63553;51.814;4.600;2022-12-07T01:25:06;2.25;;;1.80;;
75005;SDS011;63553;51.814;4.600;2022-12-07T01:27:32;3.00;;;2.65;;
75005;SDS011;63553;51.814;4.600;2022-12-07T01:29:58;1.70;;;1.60;;
75005;SDS011;63553;51.814;4.600;2022-12-07T01:32:24;2.40;;;1.80;;
75005;SDS011;63553;51.814;4.600;2022-12-07T01:34:49;1.97;;;1.60;;
75005;SDS011;63553;51.814;4.600;2022-12-07T01:37:15;2.17;;;1.97;;
75005;SDS011;63553;51.814;4.600;2022-12-07T01:39:40;3.23;;;1.63;;
75005;SDS011;63553;51.814;4.600;2022-12-07T01:42:09;2.45;;;1.70;;
75005;SDS011;63553;51.814;4.600;2022-12-07T01:45:14;2.05;;;1.85;;
75005;SDS011;63553;51.814;4.600;2022-12-07T01:47:38;1.67;;;1.58;;
75005;SDS011;63553;51.814;4.600;2022-12-07T01:50:04;1.60;;;1.50;;
75005;SDS011;63553;51.814;4.600;2022-12-07T01:52:31;1.35;;;1.25;;
75005;SDS011;63553;51.814;4.600;2022-12-07T01:55:00;1.45;;;1.35;;
75005;SDS011;63553;51.814;4.600;2022-12-07T01:57:29;2.55;;;1.50;;
75005;SDS011;63553;51.814;4.600;2022-12-07T01:59:57;2.20;;;1.40;;
75005;SDS011;63553;51.814;4.600;2022-12-07T02:02:25;1.50;;;1.40;;
75005;SDS011;63553;51.814;4.600;2022-12-07T02:04:55;1.85;;;1.67;;
75005;SDS011;63553;51.814;4.600;2022-12-07T02:07:22;1.55;;;1.45;;
75005;SDS011;63553;51.814;4.600;2022-12-07T02:09:48;1.55;;;1.45;;
75005;SDS011;63553;51.814;4.600;2022-12-07T02:12:14;2.47;;;1.40;;
75005;SDS011;63553;51.814;4.600;2022-12-07T02:14:39;1.77;;;1.67;;
75005;SDS011;63553;51.814;4.600;2022-12-07T02:28:25;1.45;;;1.35;;
75005;SDS011;63553;51.814;4.600;2022-12-07T02:30:53;2.35;;;1.55;;
75005;SDS011;63553;51.814;4.600;2022-12-07T02:33:33;1.48;;;1.20;;
75005;SDS011;63553;51.814;4.600;2022-12-07T02:36:28;1.52;;;1.42;;
75005;SDS011;63553;51.814;4.600;2022-12-07T02:40:00;1.75;;;1.40;;
75005;SDS011;63553;51.814;4.600;2022-12-07T02:44:31;1.80;;;1.30;;
75005;SDS011;63553;51.814;4.600;2022-12-07T02:46:59;1.40;;;1.30;;
75005;SDS011;63553;51.814;4.600;2022-12-07T02:49:28;2.22;;;1.50;;
75005;SDS011;63553;51.814;4.600;2022-12-07T02:51:54;1.42;;;1.30;;
75005;SDS011;63553;51.814;4.600;2022-12-07T02:54:19;1.70;;;1.60;;
75005;SDS011;63553;51.814;4.600;2022-12-07T02:56:47;1.40;;;1.30;;
75005;SDS011;63553;51.814;4.600;2022-12-07T03:04:33;1.73;;;1.20;;
75005;SDS011;63553;51.814;4.600;2022-12-07T03:07:36;1.40;;;1.30;;
75005;SDS011;63553;51.814;4.600;2022-12-07T03:10:16;1.20;;;1.10;;
75005;SDS011;63553;51.814;4.600;2022-12-07T03:12:45;1.70;;;1.30;;
75005;SDS011;63553;51.814;4.600;2022-12-07T03:18:24;1.30;;;1.20;;
75005;SDS011;63553;51.814;4.600;2022-12-07T03:20:53;1.17;;;1.08;;
75005;SDS011;63553;51.814;4.600;2022-12-07T03:23:22;2.05;;;1.08;;
75005;SDS011;63553;51.814;4.600;2022-12-07T03:25:51;1.98;;;1.20;;
75005;SDS011;63553;51.814;4.600;2022-12-07T03:28:22;1.55;;;1.20;;
75005;SDS011;63553;51.814;4.600;2022-12-07T03:33:26;1.30;;;1.20;;
75005;SDS011;63553;51.814;4.600;2022-12-07T03:38:38;1.70;;;1.33;;
75005;SDS011;63553;51.814;4.600;2022-12-07T03:41:08;1.15;;;1.10;;
75005;SDS011;63553;51.814;4.600;2022-12-07T03:43:38;1.00;;;1.00;;
75005;SDS011;63553;51.814;4.600;2022-12-07T03:54:41;1.30;;;1.20;;
75005;SDS011;63553;51.814;4.600;2022-12-07T03:57:05;2.10;;;1.50;;
75005;SDS011;63553;51.814;4.600;2022-12-07T03:59:33;1.50;;;1.40;;
75005;SDS011;63553;51.814;4.600;2022-12-07T04:02:02;1.08;;;0.90;;
75005;SDS011;63553;51.814;4.600;2022-12-07T04:04:30;1.77;;;1.20;;
75005;SDS011;63553;51.814;4.600;2022-12-07T04:06:56;1.35;;;1.15;;
75005;SDS011;63553;51.814;4.600;2022-12-07T04:09:22;0.90;;;0.90;;
75005;SDS011;63553;51.814;4.600;2022-12-07T04:11:47;1.73;;;1.10;;
75005;SDS011;63553;51.814;4.600;2022-12-07T04:14:13;1.83;;;1.10;;
75005;SDS011;63553;51.814;4.600;2022-12-07T04:16:45;1.40;;;1.30;;
75005;SDS011;63553;51.814;4.600;2022-12-07T04:19:12;1.35;;;1.25;;
75005;SDS011;63553;51.814;4.600;2022-12-07T04:21:37;1.08;;;0.98;;
75005;SDS011;63553;51.814;4.600;2022-12-07T04:24:03;1.00;;;1.00;;
75005;SDS011;63553;51.814;4.600;2022-12-07T04:26:29;1.10;;;1.10;;
75005;SDS011;63553;51.814;4.600;2022-12-07T04:28:54;1.30;;;1.20;;
75005;SDS011;63553;51.814;4.600;2022-12-07T04:31:19;1.03;;;1.03;;
75005;SDS011;63553;51.814;4.600;2022-12-07T04:33:45;1.33;;;1.23;;
75005;SDS011;63553;51.814;4.600;2022-12-07T04:36:10;1.00;;;1.00;;
75005;SDS011;63553;51.814;4.600;2022-12-07T04:38:36;1.65;;;1.13;;
75005;SDS011;63553;51.814;4.600;2022-12-07T04:41:07;0.97;;;0.97;;
75005;SDS011;63553;51.814;4.600;2022-12-07T04:43:34;0.88;;;0.88;;
75005;SDS011;63553;51.814;4.600;2022-12-07T04:46:00;1.15;;;1.15;;
75005;SDS011;63553;51.814;4.600;2022-12-07T04:48:26;1.00;;;1.00;;
75005;SDS011;63553;51.814;4.600;2022-12-07T04:50:52;2.40;;;1.00;;
75005;SDS011;63553;51.814;4.600;2022-12-07T04:53:17;1.00;;;1.00;;
75005;SDS011;63553;51.814;4.600;2022-12-07T04:55:44;1.13;;;1.05;;
75005;SDS011;63553;51.814;4.600;2022-12-07T04:58:10;1.05;;;0.88;;
75005;SDS011;63553;51.814;4.600;2022-12-07T05:00:36;1.35;;;0.90;;
75005;SDS011;63553;51.814;4.600;2022-12-07T05:03:02;0.80;;;0.80;;
75005;SDS011;63553;51.814;4.600;2022-12-07T05:05:27;0.80;;;0.80;;
75005;SDS011;63553;51.814;4.600;2022-12-07T05:07:53;3.60;;;1.20;;
75005;SDS011;63553;51.814;4.600;2022-12-07T05:10:18;2.58;;;0.85;;
75005;SDS011;63553;51.814;4.600;2022-12-07T05:12:44;2.50;;;1.15;;
75005;SDS011;63553;51.814;4.600;2022-12-07T05:15:10;1.30;;;1.02;;
75005;SDS011;63553;51.814;4.600;2022-12-07T05:17:35;2.00;;;1.13;;
75005;SDS011;63553;51.814;4.600;2022-12-07T05:20:01;3.03;;;1.10;;
75005;SDS011;63553;51.814;4.600;2022-12-07T05:22:26;4.30;;;1.20;;
75005;SDS011;63553;51.814;4.600;2022-12-07T05:24:53;5.85;;;1.20;;
75005;SDS011;63553;51.814;4.600;2022-12-07T05:27:19;3.55;;;1.20;;
75005;SDS011;63553;51.814;4.600;2022-12-07T05:29:44;2.17;;;0.93;;
75005;SDS011;63553;51.814;4.600;2022-12-07T05:32:10;1.80;;;1.20;;
75005;SDS011;63553;51.814;4.600;2022-12-07T05:34:35;3.13;;;1.00;;
75005;SDS011;63553;51.814;4.600;2022-12-07T05:37:00;1.63;;;1.25;;
75005;SDS011;63553;51.814;4.600;2022-12-07T05:39:26;2.17;;;1.17;;
75005;SDS011;63553;51.814;4.600;2022-12-07T05:41:51;1.40;;;1.30;;
75005;SDS011;63553;51.814;4.600;2022-12-07T05:47:00;0.90;;;0.90;;
75005;SDS011;63553;51.814;4.600;2022-12-07T05:49:25;1.08;;;0.90;;
75005;SDS011;63553;51.814;4.600;2022-12-07T05:51:51;2.45;;;1.05;;
75005;SDS011;63553;51.814;4.600;2022-12-07T05:54:17;0.90;;;0.90;;
75005;SDS011;63553;51.814;4.600;2022-12-07T05:56:42;1.47;;;1.00;;
75005;SDS011;63553;51.814;4.600;2022-12-07T05:59:08;1.17;;;1.07;;
75005;SDS011;63553;51.814;4.600;2022-12-07T06:04:22;1.00;;;0.85;;
75005;SDS011;63553;51.814;4.600;2022-12-07T06:06:48;1.42;;;0.90;;
75005;SDS011;63553;51.814;4.600;2022-12-07T06:09:13;1.13;;;0.88;;
75005;SDS011;63553;51.814;4.600;2022-12-07T06:11:39;0.77;;;0.77;;
75005;SDS011;63553;51.814;4.600;2022-12-07T06:14:24;0.88;;;0.88;;
75005;SDS011;63553;51.814;4.600;2022-12-07T06:16:50;1.58;;;1.00;;
75005;SDS011;63553;51.814;4.600;2022-12-07T06:19:15;0.80;;;0.80;;
75005;SDS011;63553;51.814;4.600;2022-12-07T06:21:41;1.20;;;0.85;;
75005;SDS011;63553;51.814;4.600;2022-12-07T06:24:07;1.02;;;0.90;;
75005;SDS011;63553;51.814;4.600;2022-12-07T06:26:35;1.00;;;0.90;;
75005;SDS011;63553;51.814;4.600;2022-12-07T06:29:01;3.55;;;0.90;;
75005;SDS011;63553;51.814;4.600;2022-12-07T06:31:26;0.93;;;0.90;;
75005;SDS011;63553;51.814;4.600;2022-12-07T06:33:51;1.10;;;1.10;;
75005;SDS011;63553;51.814;4.600;2022-12-07T06:36:21;1.00;;;1.00;;
75005;SDS011;63553;51.814;4.600;2022-12-07T06:38:46;1.00;;;1.00;;
75005;SDS011;63553;51.814;4.600;2022-12-07T06:41:12;0.80;;;0.80;;
75005;SDS011;63553;51.814;4.600;2022-12-07T06:43:37;0.80;;;0.80;;
75005;SDS011;63553;51.814;4.600;2022-12-07T06:46:03;1.23;;;1.05;;
75005;SDS011;63553;51.814;4.600;2022-12-07T06:48:28;1.00;;;1.00;;
75005;SDS011;63553;51.814;4.600;2022-12-07T06:50:54;0.93;;;0.87;;
75005;SDS011;63553;51.814;4.600;2022-12-07T06:53:19;0.95;;;0.85;;
75005;SDS011;63553;51.814;4.600;2022-12-07T06:55:44;1.10;;;1.00;;
75005;SDS011;63553;51.814;4.600;2022-12-07T06:58:10;2.33;;;1.03;;
75005;SDS011;63553;51.814;4.600;2022-12-07T07:00:35;1.00;;;0.90;;
75005;SDS011;63553;51.814;4.600;2022-12-07T07:03:00;1.73;;;1.00;;
75005;SDS011;63553;51.814;4.600;2022-12-07T07:05:26;1.92;;;1.10;;
75005;SDS011;63553;51.814;4.600;2022-12-07T07:07:51;1.10;;;0.90;;
75005;SDS011;63553;51.814;4.600;2022-12-07T07:10:16;0.90;;;0.90;;
75005;SDS011;63553;51.814;4.600;2022-12-07T07:12:42;1.30;;;0.80;;
75005;SDS011;63553;51.814;4.600;2022-12-07T07:15:07;1.08;;;1.00;;
75005;SDS011;63553;51.814;4.600;2022-12-07T07:17:33;1.70;;;0.82;;
75005;SDS011;63553;51.814;4.600;2022-12-07T07:19:59;0.90;;;0.90;;
75005;SDS011;63553;51.814;4.600;2022-12-07T07:22:24;0.70;;;0.70;;
75005;SDS011;63553;51.814;4.600;2022-12-07T07:24:49;2.07;;;0.90;;
75005;SDS011;63553;51.814;4.600;2022-12-07T07:27:15;2.00;;;0.87;;
75005;SDS011;63553;51.814;4.600;2022-12-07T07:29:40;0.70;;;0.70;;
75005;SDS011;63553;51.814;4.600;2022-12-07T07:32:05;1.33;;;1.23;;
75005;SDS011;63553;51.814;4.600;2022-12-07T07:34:32;0.88;;;0.88;;
75005;SDS011;63553;51.814;4.600;2022-12-07T07:36:57;1.25;;;0.95;;
75005;SDS011;63553;51.814;4.600;2022-12-07T07:39:23;4.07;;;3.05;;
75005;SDS011;63553;51.814;4.600;2022-12-07T07:41:48;4.13;;;3.07;;
75005;SDS011;63553;51.814;4.600;2022-12-07T07:44:13;3.53;;;3.00;;
75005;SDS011;63553;51.814;4.600;2022-12-07T07:46:39;5.00;;;3.60;;
75005;SDS011;63553;51.814;4.600;2022-12-07T07:49:04;7.70;;;3.93;;
75005;SDS011;63553;51.814;4.600;2022-12-07T07:51:29;14.03;;;4.47;;
75005;SDS011;63553;51.814;4.600;2022-12-07T07:53:55;9.30;;;4.10;;
75005;SDS011;63553;51.814;4.600;2022-12-07T07:56:20;8.77;;;3.70;;
75005;SDS011;63553;51.814;4.600;2022-12-07T07:58:45;7.37;;;3.90;;
75005;SDS011;63553;51.814;4.600;2022-12-07T08:01:11;6.10;;;3.35;;
75005;SDS011;63553;51.814;4.600;2022-12-07T08:03:38;5.25;;;3.10;;
75005;SDS011;63553;51.814;4.600;2022-12-07T08:06:04;5.55;;;3.30;;
75005;SDS011;63553;51.814;4.600;2022-12-07T08:08:30;7.60;;;3.40;;
75005;SDS011;63553;51.814;4.600;2022-12-07T08:10:56;4.30;;;3.15;;
75005;SDS011;63553;51.814;4.600;2022-12-07T08:13:25;5.38;;;3.10;;
75005;SDS011;63553;51.814;4.600;2022-12-07T08:15:50;6.88;;;3.05;;
75005;SDS011;63553;51.814;4.600;2022-12-07T08:18:15;8.27;;;3.73;;
75005;SDS011;63553;51.814;4.600;2022-12-07T08:20:41;6.90;;;3.70;;
75005;SDS011;63553;51.814;4.600;2022-12-07T08:23:07;5.55;;;3.05;;
75005;SDS011;63553;51.814;4.600;2022-12-07T08:25:33;5.32;;;3.60;;
75005;SDS011;63553;51.814;4.600;2022-12-07T08:27:59;7.70;;;3.83;;
75005;SDS011;63553;51.814;4.600;2022-12-07T08:30:25;5.72;;;3.10;;
75005;SDS011;63553;51.814;4.600;2022-12-07T08:32:51;6.25;;;3.00;;
75005;SDS011;63553;51.814;4.600;2022-12-07T08:35:17;6.43;;;2.72;;
75005;SDS011;63553;51.814;4.600;2022-12-07T08:37:43;8.23;;;3.30;;
75005;SDS011;63553;51.814;4.600;2022-12-07T08:40:08;9.52;;;3.10;;
75005;SDS011;63553;51.814;4.600;2022-12-07T08:42:35;6.75;;;3.20;;
75005;SDS011;63553;51.814;4.600;2022-12-07T08:45:09;627.78;;;79.75;;
75005;SDS011;63553;51.814;4.600;2022-12-07T08:47:47;679.00;;;75.68;;
75005;SDS011;63553;51.814;4.600;2022-12-07T08:50:19;559.83;;;73.35;;
75005;SDS011;63553;51.814;4.600;2022-12-07T08:52:53;763.35;;;112.72;;
75005;SDS011;63553;51.814;4.600;2022-12-07T08:55:21;249.63;;;26.27;;
75005;SDS011;63553;51.814;4.600;2022-12-07T08:57:47;5.95;;;2.92;;
75005;SDS011;63553;51.814;4.600;2022-12-07T09:00:13;8.50;;;4.10;;
75005;SDS011;63553;51.814;4.600;2022-12-07T09:02:38;5.60;;;3.58;;
75005;SDS011;63553;51.814;4.600;2022-12-07T09:05:04;8.13;;;2.67;;
75005;SDS011;63553;51.814;4.600;2022-12-07T09:07:30;5.95;;;3.00;;
75005;SDS011;63553;51.814;4.600;2022-12-07T09:09:58;5.35;;;2.78;;
75005;SDS011;63553;51.814;4.600;2022-12-07T09:12:23;3.57;;;2.90;;
75005;SDS011;63553;51.814;4.600;2022-12-07T09:14:49;5.90;;;2.92;;
75005;SDS011;63553;51.814;4.600;2022-12-07T09:17:14;5.03;;;2.60;;
75005;SDS011;63553;51.814;4.600;2022-12-07T09:19:39;5.87;;;2.43;;
75005;SDS011;63553;51.814;4.600;2022-12-07T09:22:06;10.23;;;3.10;;
75005;SDS011;63553;51.814;4.600;2022-12-07T09:24:32;9.60;;;4.50;;
75005;SDS011;63553;51.814;4.600;2022-12-07T09:26:58;854.40;;;108.22;;
75005;SDS011;63553;51.814;4.600;2022-12-07T09:29:23;1758.20;;;217.38;;
75005;SDS011;63553;51.814;4.600;2022-12-07T09:31:49;1192.93;;;161.55;;
75005;SDS011;63553;51.814;4.600;2022-12-07T09:34:15;1688.15;;;264.38;;
75005;SDS011;63553;51.814;4.600;2022-12-07T09:36:41;7.03;;;4.20;;
75005;SDS011;63553;51.814;4.600;2022-12-07T09:39:07;8.18;;;3.83;;
75005;SDS011;63553;51.814;4.600;2022-12-07T09:41:33;8.27;;;2.78;;
75005;SDS011;63553;51.814;4.600;2022-12-07T09:44:03;4.32;;;1.98;;
75005;SDS011;63553;51.814;4.600;2022-12-07T09:46:33;10.73;;;3.70;;
75005;SDS011;63553;51.814;4.600;2022-12-07T09:49:01;4.25;;;3.08;;
75005;SDS011;63553;51.814;4.600;2022-12-07T09:51:27;4.90;;;2.15;;
75005;SDS011;63553;51.814;4.600;2022-12-07T09:53:53;19.10;;;2.95;;
75005;SDS011;63553;51.814;4.600;2022-12-07T09:56:21;3.65;;;3.25;;
75005;SDS011;63553;51.814;4.600;2022-12-07T09:58:47;4.15;;;2.13;;
75005;SDS011;63553;51.814;4.600;2022-12-07T10:01:14;6.28;;;1.95;;
75005;SDS011;63553;51.814;4.600;2022-12-07T10:03:44;3.42;;;2.00;;
75005;SDS011;63553;51.814;4.600;2022-12-07T10:06:30;3.35;;;1.60;;
75005;SDS011;63553;51.814;4.600;2022-12-07T10:08:55;5.23;;;2.10;;
75005;SDS011;63553;51.814;4.600;2022-12-07T10:11:21;10.03;;;2.80;;
75005;SDS011;63553;51.814;4.600;2022-12-07T10:13:47;2.60;;;1.60;;
75005;SDS011;63553;51.814;4.600;2022-12-07T10:18:49;4.72;;;2.03;;
75005;SDS011;63553;51.814;4.600;2022-12-07T10:21:18;4.03;;;1.92;;
75005;SDS011;63553;51.814;4.600;2022-12-07T10:24:04;5.13;;;1.63;;
75005;SDS011;63553;51.814;4.600;2022-12-07T10:31:39;2.60;;;1.90;;
75005;SDS011;63553;51.814;4.600;2022-12-07T10:34:12;3.03;;;2.10;;
75005;SDS011;63553;51.814;4.600;2022-12-07T10:37:33;7.70;;;2.90;;
75005;SDS011;63553;51.814;4.600;2022-12-07T10:39:53;6.43;;;2.35;;
75005;SDS011;63553;51.814;4.600;2022-12-07T10:42:23;5.68;;;2.20;;
75005;SDS011;63553;51.814;4.600;2022-12-07T10:47:55;3.58;;;1.77;;
75005;SDS011;63553;51.814;4.600;2022-12-07T11:08:54;4.95;;;2.83;;
75005;SDS011;63553;51.814;4.600;2022-12-07T11:17:03;2.30;;;2.10;;
75005;SDS011;63553;51.814;4.600;2022-12-07T11:19:43;4.10;;;1.90;;
75005;SDS011;63553;51.814;4.600;2022-12-07T11:22:35;2.78;;;1.92;;
75005;SDS011;63553;51.814;4.600;2022-12-07T11:33:12;2.13;;;1.77;;
75005;SDS011;63553;51.814;4.600;2022-12-07T11:38:35;1.77;;;1.00;;
75005;SDS011;63553;51.814;4.600;2022-12-07T11:41:08;3.63;;;1.20;;
75005;SDS011;63553;51.814;4.600;2022-12-07T11:46:51;1.35;;;1.02;;
75005;SDS011;63553;51.814;4.600;2022-12-07T11:52:09;1.30;;;1.20;;
75005;SDS011;63553;51.814;4.600;2022-12-07T11:54:42;3.38;;;1.60;;
75005;SDS011;63553;51.814;4.600;2022-12-07T12:00:17;2.00;;;1.10;;
75005;SDS011;63553;51.814;4.600;2022-12-07T12:02:49;1.10;;;0.93;;
75005;SDS011;63553;51.814;4.600;2022-12-07T12:05:29;4.00;;;1.25;;
75005;SDS011;63553;51.814;4.600;2022-12-07T12:08:10;5.38;;;1.27;;
75005;SDS011;63553;51.814;4.600;2022-12-07T12:21:46;2.00;;;1.00;;
75005;SDS011;63553;51.814;4.600;2022-12-07T12:24:19;4.03;;;1.10;;
75005;SDS011;63553;51.814;4.600;2022-12-07T12:26:50;2.80;;;0.90;;
75005;SDS011;63553;51.814;4.600;2022-12-07T12:29:21;0.47;;;0.47;;
75005;SDS011;63553;51.814;4.600;2022-12-07T12:37:57;1.52;;;0.80;;
75005;SDS011;63553;51.814;4.600;2022-12-07T12:40:53;3.40;;;1.15;;
75005;SDS011;63553;51.814;4.600;2022-12-07T12:51:41;1.60;;;0.77;;
75005;SDS011;63553;51.814;4.600;2022-12-07T12:54:14;1.13;;;0.60;;
75005;SDS011;63553;51.814;4.600;2022-12-07T12:59:29;1.40;;;0.40;;
75005;SDS011;63553;51.814;4.600;2022-12-07T13:02:07;3.63;;;1.00;;
75005;SDS011;63553;51.814;4.600;2022-12-07T13:20:59;1.88;;;1.10;;
75005;SDS011;63553;51.814;4.600;2022-12-07T13:29:16;5.38;;;1.20;;
75005;SDS011;63553;51.814;4.600;2022-12-07T13:31:43;2.03;;;1.50;;
75005;SDS011;63553;51.814;4.600;2022-12-07T13:39:22;1.00;;;0.90;;
75005;SDS011;63553;51.814;4.600;2022-12-07T13:41:54;2.70;;;1.20;;
75005;SDS011;63553;51.814;4.600;2022-12-07T13:44:22;1.40;;;1.30;;
75005;SDS011;63553;51.814;4.600;2022-12-07T13:49:22;3.17;;;1.30;;
75005;SDS011;63553;51.814;4.600;2022-12-07T13:51:53;1.40;;;1.27;;
75005;SDS011;63553;51.814;4.600;2022-12-07T13:54:20;5.82;;;1.00;;
75005;SDS011;63553;51.814;4.600;2022-12-07T13:56:47;1.35;;;0.90;;
75005;SDS011;63553;51.814;4.600;2022-12-07T14:01:45;3.78;;;0.90;;
75005;SDS011;63553;51.814;4.600;2022-12-07T14:07:01;1.35;;;0.70;;
75005;SDS011;63553;51.814;4.600;2022-12-07T14:12:17;1.20;;;0.80;;
75005;SDS011;63553;51.814;4.600;2022-12-07T14:14:46;2.13;;;1.00;;
75005;SDS011;63553;51.814;4.600;2022-12-07T14:17:20;3.13;;;0.80;;
75005;SDS011;63553;51.814;4.600;2022-12-07T14:22:36;2.45;;;0.90;;
75005;SDS011;63553;51.814;4.600;2022-12-07T14:27:37;2.35;;;0.73;;
75005;SDS011;63553;51.814;4.600;2022-12-07T14:30:04;5.20;;;1.00;;
75005;SDS011;63553;51.814;4.600;2022-12-07T14:32:30;2.42;;;0.90;;
75005;SDS011;63553;51.814;4.600;2022-12-07T14:35:00;3.45;;;1.05;;
75005;SDS011;63553;51.814;4.600;2022-12-07T14:37:28;1.98;;;1.10;;
75005;SDS011;63553;51.814;4.600;2022-12-07T14:39:55;1.92;;;0.90;;
75005;SDS011;63553;51.814;4.600;2022-12-07T14:42:21;2.28;;;1.10;;
75005;SDS011;63553;51.814;4.600;2022-12-07T14:44:49;4.43;;;1.20;;
75005;SDS011;63553;51.814;4.600;2022-12-07T14:47:14;3.30;;;1.37;;
75005;SDS011;63553;51.814;4.600;2022-12-07T14:49:40;1.73;;;1.10;;
75005;SDS011;63553;51.814;4.600;2022-12-07T14:52:05;3.67;;;1.10;;
75005;SDS011;63553;51.814;4.600;2022-12-07T14:54:38;1.50;;;1.05;;
75005;SDS011;63553;51.814;4.600;2022-12-07T14:57:03;3.83;;;1.65;;
75005;SDS011;63553;51.814;4.600;2022-12-07T14:59:29;5.75;;;1.50;;
75005;SDS011;63553;51.814;4.600;2022-12-07T15:01:54;3.40;;;2.40;;
75005;SDS011;63553;51.814;4.600;2022-12-07T15:04:19;3.53;;;1.55;;
75005;SDS011;63553;51.814;4.600;2022-12-07T15:06:58;4.20;;;1.43;;
75005;SDS011;63553;51.814;4.600;2022-12-07T15:09:25;1.23;;;1.15;;
75005;SDS011;63553;51.814;4.600;2022-12-07T15:11:50;4.90;;;1.70;;
75005;SDS011;63553;51.814;4.600;2022-12-07T15:14:15;1.85;;;1.70;;
75005;SDS011;63553;51.814;4.600;2022-12-07T15:16:41;3.33;;;1.97;;
75005;SDS011;63553;51.814;4.600;2022-12-07T15:19:17;8.60;;;3.35;;
75005;SDS011;63553;51.814;4.600;2022-12-07T15:21:44;6.13;;;2.15;;
75005;SDS011;63553;51.814;4.600;2022-12-07T15:24:11;5.30;;;2.97;;
75005;SDS011;63553;51.814;4.600;2022-12-07T15:26:37;3.00;;;2.10;;
75005;SDS011;63553;51.814;4.600;2022-12-07T15:29:05;5.68;;;2.13;;
75005;SDS011;63553;51.814;4.600;2022-12-07T15:31:31;3.33;;;2.00;;
75005;SDS011;63553;51.814;4.600;2022-12-07T15:33:57;1.75;;;1.40;;
75005;SDS011;63553;51.814;4.600;2022-12-07T15:36:23;4.18;;;1.30;;
75005;SDS011;63553;51.814;4.600;2022-12-07T15:38:51;7.68;;;2.55;;
75005;SDS011;63553;51.814;4.600;2022-12-07T15:41:16;2.83;;;1.50;;
75005;SDS011;63553;51.814;4.600;2022-12-07T15:43:42;4.65;;;1.20;;
75005;SDS011;63553;51.814;4.600;2022-12-07T15:46:30;1.65;;;1.55;;
75005;SDS011;63553;51.814;4.600;2022-12-07T15:48:57;13.90;;;7.38;;
75005;SDS011;63553;51.814;4.600;2022-12-07T15:51:22;5.45;;;3.22;;
75005;SDS011;63553;51.814;4.600;2022-12-07T15:53:47;4.80;;;2.53;;
75005;SDS011;63553;51.814;4.600;2022-12-07T15:56:13;5.17;;;2.50;;
75005;SDS011;63553;51.814;4.600;2022-12-07T15:58:38;4.20;;;2.80;;
75005;SDS011;63553;51.814;4.600;2022-12-07T16:01:13;7.60;;;4.60;;
75005;SDS011;63553;51.814;4.600;2022-12-07T16:03:40;5.40;;;4.03;;
75005;SDS011;63553;51.814;4.600;2022-12-07T16:06:05;4.90;;;4.15;;
75005;SDS011;63553;51.814;4.600;2022-12-07T16:08:31;7.40;;;4.20;;
75005;SDS011;63553;51.814;4.600;2022-12-07T16:10:57;5.82;;;3.05;;
75005;SDS011;63553;51.814;4.600;2022-12-07T16:13:22;2.27;;;1.70;;
75005;SDS011;63553;51.814;4.600;2022-12-07T16:15:47;1.73;;;1.63;;
75005;SDS011;63553;51.814;4.600;2022-12-07T16:18:13;1.75;;;1.65;;
75005;SDS011;63553;51.814;4.600;2022-12-07T16:20:38;19.00;;;10.27;;
75005;SDS011;63553;51.814;4.600;2022-12-07T16:23:04;4.70;;;3.53;;
75005;SDS011;63553;51.814;4.600;2022-12-07T16:25:29;20.33;;;12.00;;
75005;SDS011;63553;51.814;4.600;2022-12-07T16:27:55;8.80;;;5.97;;
75005;SDS011;63553;51.814;4.600;2022-12-07T16:30:20;6.50;;;5.67;;
75005;SDS011;63553;51.814;4.600;2022-12-07T16:32:46;7.20;;;6.03;;
75005;SDS011;63553;51.814;4.600;2022-12-07T16:35:11;4.65;;;3.28;;
75005;SDS011;63553;51.814;4.600;2022-12-07T16:37:37;5.13;;;2.33;;
75005;SDS011;63553;51.814;4.600;2022-12-07T16:40:03;5.45;;;2.72;;
75005;SDS011;63553;51.814;4.600;2022-12-07T16:42:31;6.65;;;3.03;;
75005;SDS011;63553;51.814;4.600;2022-12-07T16:44:57;9.52;;;4.13;;
75005;SDS011;63553;51.814;4.600;2022-12-07T16:47:22;11.73;;;4.60;;
75005;SDS011;63553;51.814;4.600;2022-12-07T16:49:47;7.03;;;3.30;;
75005;SDS011;63553;51.814;4.600;2022-12-07T16:52:13;8.13;;;3.30;;
75005;SDS011;63553;51.814;4.600;2022-12-07T16:54:38;18.10;;;8.93;;
75005;SDS011;63553;51.814;4.600;2022-12-07T16:57:03;18.50;;;8.02;;
75005;SDS011;63553;51.814;4.600;2022-12-07T16:59:29;7.30;;;3.08;;
75005;SDS011;63553;51.814;4.600;2022-12-07T17:01:54;9.13;;;3.93;;
75005;SDS011;63553;51.814;4.600;2022-12-07T17:04:19;11.70;;;5.30;;
75005;SDS011;63553;51.814;4.600;2022-12-07T17:06:45;8.73;;;4.13;;
75005;SDS011;63553;51.814;4.600;2022-12-07T17:09:10;32.07;;;15.63;;
75005;SDS011;63553;51.814;4.600;2022-12-07T17:11:37;15.40;;;6.88;;
75005;SDS011;63553;51.814;4.600;2022-12-07T17:14:02;27.67;;;11.80;;
75005;SDS011;63553;51.814;4.600;2022-12-07T17:19:12;13.80;;;6.97;;
75005;SDS011;63553;51.814;4.600;2022-12-07T17:21:40;18.80;;;7.75;;
75005;SDS011;63553;51.814;4.600;2022-12-07T17:24:07;6.43;;;3.80;;
75005;SDS011;63553;51.814;4.600;2022-12-07T17:26:34;6.68;;;4.07;;
75005;SDS011;63553;51.814;4.600;2022-12-07T17:29:00;9.88;;;5.65;;
75005;SDS011;63553;51.814;4.600;2022-12-07T17:31:26;13.07;;;7.85;;
75005;SDS011;63553;51.814;4.600;2022-12-07T17:33:52;7.50;;;3.60;;
75005;SDS011;63553;51.814;4.600;2022-12-07T17:36:18;10.40;;;6.68;;
75005;SDS011;63553;51.814;4.600;2022-12-07T17:38:49;6.15;;;4.18;;
75005;SDS011;63553;51.814;4.600;2022-12-07T17:41:16;4.05;;;2.33;;